Time;durP1;ratioP1;P1;durP2;ratioP2;P2;SDS_P1;SDS_P2;PMS_P1;PMS_P2;Temp;Humidity;BMP_temperature;BMP_pressure;BME280_temperature;BME280_humidity;BME280_pressure;Samples;Min_cycle;Max_cycle;Signal;HPM_P1;HPM_P2
2021/11/05 00:00:27;;;;;;;18.98;7.65;;;8.40;99.90;;;;;;5067504;28;20035;-70
2021/11/05 00:03:31;;;;;;;17.98;7.50;;;8.40;99.90;;;;;;5058233;28;20524;-70
2021/11/05 00:06:35;;;;;;;23.70;8.48;;;8.40;99.90;;;;;;5057644;28;20051;-70
2021/11/05 00:09:40;;;;;;;17.98;8.65;;;8.50;99.90;;;;;;5065331;28;20477;-70
2021/11/05 00:12:45;;;;;;;17.35;8.27;;;8.50;99.90;;;;;;5063126;28;20048;-70
2021/11/05 00:15:49;;;;;;;20.63;8.73;;;8.50;99.90;;;;;;5060235;28;20055;-70
2021/11/05 00:18:54;;;;;;;24.67;9.50;;;8.50;99.90;;;;;;5060158;28;20043;-70
2021/11/05 00:21:58;;;;;;;24.23;10.30;;;8.50;99.90;;;;;;5066205;28;20063;-70
2021/11/05 00:25:06;;;;;;;28.73;10.93;;;8.50;99.90;;;;;;5060880;28;20518;-70
2021/11/05 00:28:10;;;;;;;35.22;14.68;;;8.50;99.90;;;;;;5067458;28;20031;-70
2021/11/05 00:31:15;;;;;;;53.40;19.13;;;8.50;99.90;;;;;;5058197;28;20044;-70
2021/11/05 00:34:19;;;;;;;87.90;38.05;;;8.40;99.90;;;;;;5058708;28;20036;-70
2021/11/05 00:37:23;;;;;;;45.58;21.63;;;8.40;99.90;;;;;;5057887;28;20039;-70
2021/11/05 00:40:31;;;;;;;23.38;10.50;;;8.40;99.90;;;;;;5062351;28;20032;-70
2021/11/05 00:43:35;;;;;;;22.52;6.47;;;8.50;99.90;;;;;;5058261;28;20044;-70
2021/11/05 00:46:39;;;;;;;18.40;6.43;;;8.50;99.90;;;;;;5057490;28;20036;-70
2021/11/05 00:49:45;;;;;;;14.15;6.32;;;8.60;99.90;;;;;;5060030;28;20063;-70
2021/11/05 00:52:49;;;;;;;19.08;6.10;;;8.70;99.90;;;;;;5060756;28;20044;-70
2021/11/05 00:55:53;;;;;;;11.25;5.43;;;8.80;99.90;;;;;;5058701;28;20120;-70
2021/11/05 00:58:57;;;;;;;13.73;6.85;;;8.70;99.90;;;;;;5059715;28;20048;-70
2021/11/05 01:02:02;;;;;;;27.92;9.32;;;8.70;99.90;;;;;;5060170;28;20051;-70
2021/11/05 01:05:08;;;;;;;15.98;7.07;;;8.60;99.90;;;;;;5057859;28;20040;-70
2021/11/05 01:08:13;;;;;;;15.15;6.50;;;8.60;99.90;;;;;;5057320;28;20044;-70
2021/11/05 01:11:17;;;;;;;13.45;6.72;;;8.50;99.90;;;;;;5057329;28;20040;-70
2021/11/05 01:14:21;;;;;;;22.02;9.68;;;8.40;99.90;;;;;;5061911;28;20043;-70
2021/11/05 01:17:26;;;;;;;22.23;5.95;;;8.30;99.90;;;;;;5065356;28;20047;-70
2021/11/05 01:20:30;;;;;;;18.83;5.85;;;8.30;99.90;;;;;;5061490;28;20392;-70
2021/11/05 01:23:34;;;;;;;12.55;5.78;;;8.40;99.90;;;;;;5060662;28;20363;-70
2021/11/05 01:26:39;;;;;;;20.05;6.13;;;8.40;99.90;;;;;;5067108;28;20040;-70
2021/11/05 01:29:45;;;;;;;14.18;5.22;;;8.50;99.90;;;;;;5061165;28;20514;-70
2021/11/05 01:32:50;;;;;;;12.23;4.70;;;8.50;99.90;;;;;;5062664;28;20052;-70
2021/11/05 01:35:54;;;;;;;16.80;5.10;;;8.60;99.90;;;;;;5064017;28;20048;-70
2021/11/05 01:38:58;;;;;;;18.67;6.25;;;8.70;99.90;;;;;;5063805;28;20055;-70
2021/11/05 01:42:02;;;;;;;16.20;6.40;;;8.70;99.90;;;;;;5059074;28;20663;-70
2021/11/05 01:45:08;;;;;;;16.30;6.10;;;8.70;99.90;;;;;;5064150;28;20387;-70
2021/11/05 01:48:12;;;;;;;14.88;6.38;;;8.60;99.90;;;;;;5064570;28;20047;-70
2021/11/05 01:51:17;;;;;;;16.38;5.60;;;8.60;99.90;;;;;;5065944;28;20043;-70
2021/11/05 01:54:22;;;;;;;14.85;5.10;;;8.50;99.90;;;;;;5060894;28;20392;-70
2021/11/05 01:57:26;;;;;;;15.95;4.25;;;8.40;99.90;;;;;;5066685;28;20040;-70
2021/11/05 02:00:32;;;;;;;13.10;4.88;;;8.30;99.90;;;;;;5064050;28;20035;-70
2021/11/05 02:03:37;;;;;;;12.38;4.80;;;8.30;99.90;;;;;;5067409;28;20035;-70
2021/11/05 02:06:43;;;;;;;12.38;7.43;;;8.30;99.90;;;;;;5060722;28;20039;-70
2021/11/05 02:09:48;;;;;;;22.00;9.65;;;8.30;99.90;;;;;;5061231;28;20040;-70
2021/11/05 02:12:53;;;;;;;8.65;4.57;;;8.30;99.90;;;;;;5062825;28;20047;-70
2021/11/05 02:16:00;;;;;;;12.15;2.20;;;8.30;99.90;;;;;;5066710;28;20036;-70
2021/11/05 02:19:10;;;;;;;11.48;3.05;;;8.30;99.90;;;;;;5063270;28;20060;-70
2021/11/05 02:22:14;;;;;;;6.80;2.30;;;8.30;99.90;;;;;;5064302;28;20051;-70
2021/11/05 02:25:20;;;;;;;29.83;7.25;;;8.30;99.90;;;;;;5065146;28;20032;-70
2021/11/05 02:28:24;;;;;;;13.55;4.97;;;8.40;99.90;;;;;;5060050;28;20036;-70
2021/11/05 02:31:28;;;;;;;8.70;3.50;;;8.40;99.90;;;;;;5066707;28;20375;-70
2021/11/05 02:34:32;;;;;;;11.07;4.10;;;8.40;99.90;;;;;;5067391;28;20448;-70
2021/11/05 02:37:37;;;;;;;12.43;3.70;;;8.20;99.90;;;;;;5067993;28;20032;-70
2021/11/05 02:40:41;;;;;;;9.07;3.50;;;8.20;99.90;;;;;;5060272;28;20036;-69
2021/11/05 02:43:46;;;;;;;10.95;3.53;;;8.20;99.90;;;;;;5060293;28;20033;-69
2021/11/05 02:46:51;;;;;;;12.25;3.10;;;8.20;99.90;;;;;;5062420;28;20036;-70
2021/11/05 02:50:06;;;;;;;12.15;3.47;;;8.30;99.90;;;;;;5067453;28;20098;-70
2021/11/05 02:53:10;;;;;;;13.93;3.30;;;8.30;99.90;;;;;;5062893;28;20044;-70
2021/11/05 02:56:15;;;;;;;9.35;3.05;;;8.30;99.90;;;;;;5057081;28;20047;-70
2021/11/05 02:59:18;;;;;;;11.35;3.22;;;8.30;99.90;;;;;;5059797;28;20033;-70
2021/11/05 03:02:25;;;;;;;13.85;3.22;;;8.30;99.90;;;;;;5059745;28;20048;-70
2021/11/05 03:05:29;;;;;;;9.43;2.95;;;8.30;99.90;;;;;;5059777;28;20048;-70
2021/11/05 03:08:34;;;;;;;10.23;2.20;;;8.30;99.90;;;;;;5058875;28;20037;-69
2021/11/05 03:11:41;;;;;;;11.40;2.90;;;8.30;99.90;;;;;;5064007;28;20047;-69
2021/11/05 03:14:45;;;;;;;10.02;2.30;;;8.30;99.90;;;;;;5059161;28;20032;-70
2021/11/05 03:17:49;;;;;;;8.85;3.20;;;8.40;99.90;;;;;;5060318;28;20044;-70
2021/11/05 03:20:53;;;;;;;12.23;2.75;;;8.30;99.90;;;;;;5061074;28;20029;-70
2021/11/05 03:23:58;;;;;;;14.60;2.97;;;8.30;99.90;;;;;;5069704;28;20046;-70
2021/11/05 03:27:03;;;;;;;8.50;2.80;;;8.30;99.90;;;;;;5063279;28;20052;-70
2021/11/05 03:30:10;;;;;;;12.60;3.22;;;8.20;99.90;;;;;;5062366;28;20036;-70
2021/11/05 03:33:14;;;;;;;8.23;3.22;;;8.10;99.90;;;;;;5061641;28;20052;-70
2021/11/05 03:36:18;;;;;;;8.85;3.33;;;8.00;99.90;;;;;;5058458;28;20584;-70
2021/11/05 03:39:23;;;;;;;16.60;5.28;;;7.80;99.90;;;;;;5057883;28;20024;-70
2021/11/05 03:42:28;;;;;;;11.68;4.10;;;7.70;99.90;;;;;;5063696;28;20059;-70
2021/11/05 03:45:32;;;;;;;19.80;5.60;;;7.60;99.90;;;;;;5057980;28;20036;-70
2021/11/05 03:48:39;;;;;;;16.38;6.05;;;7.50;99.90;;;;;;5065859;28;20044;-70
2021/11/05 03:51:43;;;;;;;23.75;7.70;;;7.40;99.90;;;;;;5067035;28;20046;-70
2021/11/05 03:54:47;;;;;;;18.73;8.70;;;7.30;99.90;;;;;;5066869;28;20047;-70
2021/11/05 03:57:51;;;;;;;19.15;8.27;;;7.30;99.90;;;;;;5059730;28;20055;-70
2021/11/05 04:00:55;;;;;;;16.50;7.30;;;7.30;99.90;;;;;;5066830;28;20048;-70
2021/11/05 04:03:59;;;;;;;16.48;8.27;;;7.20;99.90;;;;;;5064839;28;20051;-70
2021/11/05 04:07:03;;;;;;;18.60;8.13;;;7.20;99.90;;;;;;5059913;28;20055;-70
2021/11/05 04:10:08;;;;;;;16.02;8.90;;;7.10;99.90;;;;;;5061680;28;20044;-70
2021/11/05 04:13:14;;;;;;;25.90;13.00;;;7.00;99.90;;;;;;5062290;28;20052;-70
2021/11/05 04:16:18;;;;;;;19.38;9.73;;;7.00;99.90;;;;;;5058036;28;20040;-70
2021/11/05 04:19:23;;;;;;;16.58;6.78;;;6.90;99.90;;;;;;5058737;28;20044;-70
2021/11/05 04:22:26;;;;;;;13.95;6.60;;;6.80;99.90;;;;;;5061005;28;20039;-70
2021/11/05 04:25:30;;;;;;;15.68;6.95;;;6.80;99.90;;;;;;5060282;28;20043;-70
2021/11/05 04:28:35;;;;;;;16.05;6.43;;;6.80;99.90;;;;;;5061095;28;20373;-70
2021/11/05 04:31:39;;;;;;;19.13;7.18;;;6.80;99.90;;;;;;5057273;28;20044;-70
2021/11/05 04:34:43;;;;;;;12.48;6.32;;;6.80;99.90;;;;;;5062144;28;20044;-70
2021/11/05 04:37:47;;;;;;;13.07;6.13;;;6.80;99.90;;;;;;5056274;28;20487;-70
2021/11/05 04:40:51;;;;;;;21.13;6.35;;;6.80;99.90;;;;;;5065269;28;20044;-70
2021/11/05 04:43:55;;;;;;;18.00;7.63;;;6.70;99.90;;;;;;5066080;28;20051;-70
2021/11/05 04:46:59;;;;;;;12.25;6.50;;;6.80;99.90;;;;;;5064737;28;20059;-70
2021/11/05 04:50:04;;;;;;;14.95;6.90;;;6.80;99.90;;;;;;5060515;28;20051;-70
2021/11/05 04:53:08;;;;;;;18.67;6.70;;;6.80;99.90;;;;;;5062872;28;20489;-69
2021/11/05 04:56:12;;;;;;;13.32;5.50;;;6.80;99.90;;;;;;5065662;28;20039;-70
2021/11/05 04:59:18;;;;;;;18.85;5.47;;;6.80;99.90;;;;;;5061582;28;20036;-70
2021/11/05 05:02:22;;;;;;;24.13;7.78;;;6.80;99.90;;;;;;5060727;28;20048;-70
2021/11/05 05:05:27;;;;;;;15.32;5.25;;;6.70;99.90;;;;;;5064371;28;20466;-70
2021/11/05 05:08:31;;;;;;;16.25;4.97;;;6.70;99.90;;;;;;5067856;28;20061;-70
2021/11/05 05:11:36;;;;;;;15.63;5.70;;;6.70;99.90;;;;;;5061714;28;20506;-70
2021/11/05 05:14:40;;;;;;;25.55;6.32;;;6.70;99.90;;;;;;5068161;28;20051;-70
2021/11/05 05:17:44;;;;;;;30.17;8.45;;;6.70;99.90;;;;;;5065884;28;20044;-70
2021/11/05 05:20:49;;;;;;;22.88;7.68;;;6.70;99.90;;;;;;5068954;28;20415;-70
2021/11/05 05:23:54;;;;;;;19.17;8.75;;;6.70;99.90;;;;;;5063356;28;20040;-69
2021/11/05 05:26:58;;;;;;;17.77;8.05;;;6.80;99.90;;;;;;5062213;28;20044;-69
2021/11/05 05:30:03;;;;;;;13.48;7.55;;;6.80;99.90;;;;;;5066844;28;20055;-69
2021/11/05 05:33:08;;;;;;;15.70;7.72;;;6.80;99.90;;;;;;5061589;28;20040;-69
2021/11/05 05:36:12;;;;;;;13.95;6.57;;;6.80;99.90;;;;;;5065456;28;20055;-69
2021/11/05 05:39:16;;;;;;;13.95;7.93;;;6.90;99.90;;;;;;5070072;28;20495;-69
2021/11/05 05:42:20;;;;;;;15.52;5.97;;;6.80;99.90;;;;;;5065347;28;20083;-70
2021/11/05 05:45:26;;;;;;;18.35;6.55;;;6.70;99.90;;;;;;5067122;28;20051;-69
2021/11/05 05:48:30;;;;;;;15.13;6.47;;;6.60;99.90;;;;;;5061402;28;20048;-69
2021/11/05 05:51:34;;;;;;;14.77;6.43;;;6.70;99.90;;;;;;5063259;28;20039;-70
2021/11/05 05:54:39;;;;;;;15.77;6.20;;;6.70;99.90;;;;;;5068802;28;20035;-70
2021/11/05 05:57:44;;;;;;;23.75;8.70;;;6.70;99.90;;;;;;5059580;28;20056;-70
2021/11/05 06:00:48;;;;;;;16.65;7.63;;;6.60;99.90;;;;;;5062697;28;20497;-70
2021/11/05 06:03:53;;;;;;;15.23;7.18;;;6.60;99.90;;;;;;5063218;28;20505;-70
2021/11/05 06:06:57;;;;;;;13.50;6.68;;;6.50;99.90;;;;;;5068716;28;20048;-70
2021/11/05 06:10:02;;;;;;;16.23;7.53;;;6.50;99.90;;;;;;5063462;28;20415;-70
2021/11/05 06:13:06;;;;;;;20.98;9.95;;;6.50;99.90;;;;;;5062945;28;20039;-70
2021/11/05 06:16:10;;;;;;;87.80;12.25;;;6.50;99.90;;;;;;5061477;28;20036;-70
2021/11/05 06:19:14;;;;;;;19.30;7.68;;;6.40;99.90;;;;;;5061175;28;20040;-70
2021/11/05 06:22:19;;;;;;;14.70;7.95;;;6.30;99.90;;;;;;5060550;28;20047;-69
2021/11/05 06:25:23;;;;;;;13.68;6.60;;;6.30;99.90;;;;;;5063307;28;20082;-70
2021/11/05 06:28:27;;;;;;;24.75;7.78;;;6.40;99.90;;;;;;5060795;28;20040;-69
2021/11/05 06:31:34;;;;;;;16.20;6.93;;;6.40;99.90;;;;;;5068706;28;20035;-69
2021/11/05 06:34:39;;;;;;;17.23;6.57;;;6.40;99.90;;;;;;5059391;28;20040;-70
2021/11/05 06:37:43;;;;;;;29.92;11.77;;;6.50;99.90;;;;;;5064925;28;20051;-69
2021/11/05 06:40:47;;;;;;;11.90;6.30;;;6.70;99.90;;;;;;5060946;28;20036;-69
2021/11/05 06:43:53;;;;;;;13.75;4.60;;;6.90;99.90;;;;;;5068310;28;20055;-70
2021/11/05 06:46:58;;;;;;;18.08;6.13;;;6.90;99.90;;;;;;5057040;28;20053;-69
2021/11/05 06:50:04;;;;;;;14.73;5.68;;;7.50;99.90;;;;;;5055563;28;20055;-70
2021/11/05 06:53:10;;;;;;;13.15;4.43;;;9.50;99.90;;;;;;5058302;28;20040;-70
2021/11/05 06:56:14;;;;;;;8.68;3.22;;;12.30;99.90;;;;;;5062850;28;20485;-70
2021/11/05 06:59:18;;;;;;;12.23;3.30;;;15.20;99.90;;;;;;5060465;28;20039;-70
2021/11/05 07:02:23;;;;;;;9.48;2.83;;;17.30;99.90;;;;;;5052652;28;20044;-70
2021/11/05 07:05:27;;;;;;;9.32;3.20;;;16.60;99.90;;;;;;5063836;28;20040;-70
2021/11/05 07:08:31;;;;;;;8.23;2.70;;;15.20;99.90;;;;;;5070639;28;20971;-70
2021/11/05 07:11:35;;;;;;;11.25;4.65;;;14.20;99.90;;;;;;5060458;28;20055;-70
2021/11/05 07:14:40;;;;;;;12.02;4.25;;;13.40;99.90;;;;;;5058483;28;20047;-70
2021/11/05 07:17:44;;;;;;;11.23;3.10;;;13.00;99.90;;;;;;5058393;28;20040;-70
2021/11/05 07:20:50;;;;;;;12.02;4.43;;;12.70;99.90;;;;;;5060700;28;20048;-70
2021/11/05 07:24:02;;;;;;;9.98;4.25;;;12.50;99.90;;;;;;5063038;28;20051;-70
2021/11/05 07:27:07;;;;;;;11.73;4.75;;;12.50;99.90;;;;;;5060932;28;20040;-70
2021/11/05 07:30:14;;;;;;;11.88;5.43;;;12.70;99.90;;;;;;5067073;28;20040;-70
2021/11/05 07:33:18;;;;;;;13.70;4.80;;;13.00;99.90;;;;;;5065070;28;20059;-70
2021/11/05 07:36:23;;;;;;;12.07;4.22;;;13.10;99.90;;;;;;5058296;28;20077;-70
2021/11/05 07:39:28;;;;;;;20.25;4.72;;;12.30;99.90;;;;;;5058410;28;20032;-71
2021/11/05 07:42:32;;;;;;;12.27;5.13;;;12.10;99.90;;;;;;5061552;28;20111;-70
2021/11/05 07:45:36;;;;;;;9.43;4.75;;;11.40;99.90;;;;;;5061291;28;20044;-70
2021/11/05 07:48:40;;;;;;;13.77;3.70;;;10.90;99.90;;;;;;5062431;28;20047;-70
2021/11/05 07:51:44;;;;;;;10.20;3.83;;;10.30;99.90;;;;;;5063808;28;20391;-70
2021/11/05 07:54:50;;;;;;;10.50;3.60;;;11.40;99.90;;;;;;5067853;28;20044;-70
2021/11/05 07:57:53;;;;;;;5.78;3.58;;;13.20;99.90;;;;;;5062828;28;20051;-70
2021/11/05 08:00:57;;;;;;;11.38;4.25;;;14.80;99.90;;;;;;5059894;28;20407;-70
2021/11/05 08:04:01;;;;;;;9.65;4.45;;;16.20;99.90;;;;;;5059384;28;20500;-70
2021/11/05 08:07:05;;;;;;;14.68;5.07;;;17.00;99.90;;;;;;5062445;28;20036;-70
2021/11/05 08:10:10;;;;;;;14.52;4.63;;;18.50;99.90;;;;;;5063493;28;20051;-71
2021/11/05 08:13:15;;;;;;;16.50;4.32;;;20.10;99.90;;;;;;5063204;28;20056;-71
2021/11/05 08:16:20;;;;;;;12.85;5.15;;;20.80;99.90;;;;;;5063003;28;20055;-71
2021/11/05 08:19:25;;;;;;;27.55;8.48;;;21.30;99.90;;;;;;5061078;28;20047;-70
2021/11/05 08:22:29;;;;;;;21.23;7.25;;;21.60;99.20;;;;;;5064185;28;20043;-71
2021/11/05 08:25:33;;;;;;;9.13;3.58;;;21.00;99.80;;;;;;5064670;28;20502;-71
2021/11/05 08:28:41;;;;;;;6.75;3.30;;;18.80;99.90;;;;;;5062167;28;20107;-70
2021/11/05 08:31:47;;;;;;;7.75;3.63;;;16.40;99.90;;;;;;5065474;28;20040;-70
2021/11/05 08:34:52;;;;;;;11.73;3.78;;;14.80;99.90;;;;;;5060861;28;20039;-71
2021/11/05 08:37:56;;;;;;;14.93;4.18;;;14.30;99.90;;;;;;5061570;28;20051;-70
2021/11/05 08:41:00;;;;;;;7.47;3.78;;;13.30;99.90;;;;;;5059730;28;20043;-70
2021/11/05 08:44:05;;;;;;;24.05;4.32;;;13.30;99.90;;;;;;5066106;28;20067;-70
2021/11/05 08:47:10;;;;;;;13.25;4.43;;;14.30;99.90;;;;;;5070130;28;20055;-70
2021/11/05 08:50:20;;;;;;;6.13;3.58;;;14.60;99.90;;;;;;5060643;28;20521;-70
2021/11/05 08:53:25;;;;;;;7.13;3.67;;;14.50;99.90;;;;;;5067681;28;20384;-70
2021/11/05 08:56:29;;;;;;;5.57;3.38;;;15.00;99.90;;;;;;5067124;28;20395;-71
2021/11/05 08:59:34;;;;;;;8.82;3.70;;;15.50;99.90;;;;;;5068498;28;20071;-70
2021/11/05 09:02:39;;;;;;;12.77;4.30;;;15.30;99.90;;;;;;5069868;28;20390;-71
2021/11/05 09:05:44;;;;;;;9.65;4.03;;;15.30;99.90;;;;;;5054851;28;20036;-70
2021/11/05 09:08:49;;;;;;;10.00;3.65;;;14.60;99.90;;;;;;5069415;28;20039;-70
2021/11/05 09:11:54;;;;;;;7.50;4.40;;;13.70;99.90;;;;;;5067730;28;20051;-70
2021/11/05 09:14:59;;;;;;;10.55;5.00;;;12.30;99.90;;;;;;5060685;28;20942;-70
2021/11/05 09:18:08;;;;;;;8.23;4.68;;;12.30;99.90;;;;;;5065306;28;20047;-70
2021/11/05 09:21:12;;;;;;;7.15;4.05;;;13.20;99.90;;;;;;5061096;28;20051;-70
2021/11/05 09:24:16;;;;;;;9.32;3.80;;;13.90;99.90;;;;;;5069736;28;20040;-70
2021/11/05 09:27:20;;;;;;;6.47;4.13;;;14.30;99.90;;;;;;5062875;28;20051;-70
2021/11/05 09:30:25;;;;;;;7.30;3.53;;;14.10;99.90;;;;;;5056826;28;20044;-71
2021/11/05 09:33:30;;;;;;;9.95;4.55;;;14.20;99.90;;;;;;5057492;28;20047;-70
2021/11/05 09:36:34;;;;;;;10.75;4.40;;;14.50;99.90;;;;;;5070533;28;20031;-70
2021/11/05 09:39:39;;;;;;;6.20;3.75;;;14.60;99.90;;;;;;5072876;28;20533;-71
2021/11/05 09:42:47;;;;;;;8.55;3.97;;;14.70;99.90;;;;;;5071659;28;20044;-71
2021/11/05 09:45:51;;;;;;;8.40;4.30;;;14.90;99.90;;;;;;5067944;28;20414;-70
2021/11/05 09:48:56;;;;;;;12.57;4.70;;;15.20;99.90;;;;;;5072788;28;20047;-71
2021/11/05 09:52:02;;;;;;;12.35;4.70;;;15.50;99.90;;;;;;5068990;28;20040;-71
2021/11/05 09:55:08;;;;;;;8.48;4.70;;;15.50;99.90;;;;;;5065338;28;20048;-71
2021/11/05 09:58:13;;;;;;;9.95;4.10;;;15.30;99.90;;;;;;5053326;28;20526;-70
2021/11/05 10:01:17;;;;;;;10.07;3.33;;;14.50;99.90;;;;;;5070418;28;20043;-71
2021/11/05 10:04:21;;;;;;;6.13;3.20;;;13.60;99.90;;;;;;5063582;28;20032;-70
2021/11/05 10:07:26;;;;;;;8.18;3.08;;;14.00;99.90;;;;;;5063578;28;20059;-70
2021/11/05 10:10:33;;;;;;;6.65;3.20;;;13.50;99.90;;;;;;5059800;28;20040;-71
2021/11/05 10:13:42;;;;;;;7.78;2.33;;;14.20;99.90;;;;;;5062738;28;20383;-70
2021/11/05 10:17:04;;;;;;;5.68;2.90;;;14.80;99.90;;;;;;5063938;28;20075;-71
2021/11/05 10:20:10;;;;;;;8.32;2.55;;;15.00;99.90;;;;;;5065324;28;20036;-71
2021/11/05 10:23:16;;;;;;;9.23;2.72;;;15.30;99.90;;;;;;5063037;28;20044;-71
2021/11/05 10:26:22;;;;;;;7.15;2.50;;;15.70;99.90;;;;;;5063042;28;20048;-71
2021/11/05 10:29:32;;;;;;;7.75;2.60;;;16.10;99.90;;;;;;5063824;28;20043;-71
2021/11/05 10:32:41;;;;;;;6.35;2.50;;;16.50;99.90;;;;;;5066190;28;20040;-71
2021/11/05 10:35:49;;;;;;;5.07;2.60;;;16.70;99.90;;;;;;5063245;28;20063;-71
2021/11/05 10:39:00;;;;;;;8.23;3.50;;;17.10;99.90;;;;;;5065232;28;20059;-71
2021/11/05 10:42:05;;;;;;;7.50;3.15;;;17.20;99.90;;;;;;5066271;28;20510;-71
2021/11/05 10:45:27;;;;;;;7.38;3.00;;;17.10;99.90;;;;;;5067830;28;20459;-71
2021/11/05 10:48:39;;;;;;;11.52;3.05;;;16.90;99.90;;;;;;5068611;28;20059;-71
2021/11/05 10:51:44;;;;;;;12.35;3.20;;;16.70;99.90;;;;;;5059093;28;20055;-71
2021/11/05 10:55:00;;;;;;;9.20;2.85;;;16.70;99.90;;;;;;5059706;28;20036;-71
2021/11/05 10:58:06;;;;;;;9.13;3.30;;;16.20;99.90;;;;;;5051675;28;20043;-70
2021/11/05 11:01:15;;;;;;;9.70;2.67;;;15.50;99.90;;;;;;5062037;28;20060;-71
2021/11/05 11:04:28;;;;;;;11.55;3.83;;;15.40;99.90;;;;;;5071657;28;20051;-70
2021/11/05 11:07:35;;;;;;;8.85;3.28;;;14.40;99.90;;;;;;5071781;28;20333;-70
2021/11/05 11:10:39;;;;;;;8.23;3.13;;;13.90;99.90;;;;;;5071023;28;20037;-70
2021/11/05 11:13:45;;;;;;;7.00;3.63;;;14.00;99.90;;;;;;5071474;28;20198;-71
2021/11/05 11:16:53;;;;;;;9.27;3.30;;;13.90;99.90;;;;;;5072011;28;20048;-71
2021/11/05 11:19:57;;;;;;;9.02;3.70;;;14.10;99.90;;;;;;5071454;28;20044;-71
2021/11/05 11:23:02;;;;;;;9.52;3.75;;;14.20;99.90;;;;;;5070779;28;21355;-70
2021/11/05 11:26:07;;;;;;;13.55;3.90;;;14.00;99.90;;;;;;5064496;28;20048;-70
2021/11/05 11:29:13;;;;;;;9.68;3.78;;;13.70;99.90;;;;;;5071308;28;20035;-71
2021/11/05 11:32:17;;;;;;;12.15;3.85;;;14.10;99.90;;;;;;5071593;28;20040;-70
2021/11/05 11:35:21;;;;;;;7.35;3.47;;;14.40;99.90;;;;;;5066219;28;20047;-71
2021/11/05 11:38:26;;;;;;;6.75;3.03;;;14.80;99.90;;;;;;5058506;28;20059;-71
2021/11/05 11:41:32;;;;;;;11.10;3.50;;;15.10;99.90;;;;;;5071137;28;20040;-71
2021/11/05 11:44:37;;;;;;;6.88;3.15;;;15.10;99.90;;;;;;5070470;28;20585;-71
2021/11/05 11:47:48;;;;;;;7.20;3.20;;;15.20;99.90;;;;;;5070824;28;20106;-71
2021/11/05 11:51:21;;;;;;;6.75;3.17;;;15.50;99.90;;;;;;5071025;28;20044;-71
2021/11/05 11:54:26;;;;;;;9.48;2.70;;;16.10;99.90;;;;;;5070660;28;20064;-71
2021/11/05 11:57:31;;;;;;;10.10;3.85;;;16.40;99.90;;;;;;5070763;28;20039;-71
2021/11/05 12:00:36;;;;;;;12.18;3.55;;;16.70;99.90;;;;;;5060744;28;20055;-71
2021/11/05 12:04:01;;;;;;;6.72;3.17;;;16.70;99.90;;;;;;5068332;28;20048;-71
2021/11/05 12:07:07;;;;;;;10.10;3.22;;;16.80;99.90;;;;;;5050391;28;20526;-71
2021/11/05 12:10:27;;;;;;;13.32;2.80;;;17.00;99.90;;;;;;5061872;28;20122;-71
2021/11/05 12:13:34;;;;;;;9.55;3.00;;;17.30;99.90;;;;;;5070492;28;20043;-71
2021/11/05 12:16:38;;;;;;;7.07;2.70;;;17.30;99.90;;;;;;5070651;28;20044;-72
2021/11/05 12:19:42;;;;;;;13.93;2.67;;;17.10;99.90;;;;;;5069781;28;20391;-71
2021/11/05 12:23:06;;;;;;;9.43;2.45;;;17.00;99.90;;;;;;5064975;28;20518;-71
2021/11/05 12:26:10;;;;;;;4.30;1.30;;;16.90;99.90;;;;;;5064310;28;20048;-71
2021/11/05 12:29:33;;;;;;;9.30;2.58;;;16.70;99.90;;;;;;5068261;28;20052;-71
2021/11/05 12:32:38;;;;;;;3.78;2.03;;;16.40;99.90;;;;;;5070615;28;20056;-71
2021/11/05 12:35:50;;;;;;;5.63;1.98;;;16.30;99.90;;;;;;5064766;28;20036;-71
2021/11/05 12:39:04;;;;;;;6.15;1.95;;;16.10;99.90;;;;;;5069385;28;20374;-70
2021/11/05 12:42:15;;;;;;;8.35;1.70;;;16.10;99.90;;;;;;5050622;28;20491;-71
2021/11/05 12:45:44;;;;;;;6.32;2.00;;;16.00;99.90;;;;;;5054036;28;20589;-71
2021/11/05 12:48:53;;;;;;;6.60;2.22;;;15.80;99.90;;;;;;5062044;28;20639;-70
2021/11/05 12:51:56;;;;;;;6.32;1.80;;;15.90;99.90;;;;;;5061534;28;20383;-71
2021/11/05 12:55:03;;;;;;;6.97;1.52;;;15.90;99.90;;;;;;5066368;28;20052;-71
2021/11/05 12:58:10;;;;;;;3.55;1.25;;;15.90;99.90;;;;;;5060948;28;20036;-71
2021/11/05 13:01:17;;;;;;;6.30;1.42;;;15.90;99.90;;;;;;5056076;28;20047;-70
2021/11/05 13:04:23;;;;;;;4.15;1.40;;;15.80;99.90;;;;;;5061886;28;20039;-71
2021/11/05 13:07:27;;;;;;;8.20;1.67;;;15.60;99.90;;;;;;5060659;28;20505;-71
2021/11/05 13:10:34;;;;;;;4.72;1.20;;;15.50;99.90;;;;;;5064477;28;20043;-70
2021/11/05 13:13:38;;;;;;;3.63;1.38;;;15.50;99.90;;;;;;5066664;28;20043;-70
2021/11/05 13:16:43;;;;;;;8.43;1.70;;;15.50;99.90;;;;;;5064714;28;20505;-72
2021/11/05 13:19:57;;;;;;;6.65;2.00;;;15.30;99.90;;;;;;5071378;28;20378;-70
2021/11/05 13:23:02;;;;;;;5.63;1.67;;;15.30;99.90;;;;;;5065942;28;20040;-71
2021/11/05 13:26:06;;;;;;;7.00;1.70;;;15.30;99.90;;;;;;5064143;28;20040;-70
2021/11/05 13:29:10;;;;;;;4.55;1.02;;;15.40;99.90;;;;;;5058895;28;20486;-71
2021/11/05 13:32:21;;;;;;;2.42;1.17;;;15.30;99.90;;;;;;5071195;28;20383;-71
2021/11/05 13:35:26;;;;;;;4.72;1.45;;;15.40;99.90;;;;;;5063449;28;20051;-71
2021/11/05 13:38:39;;;;;;;2.47;1.00;;;15.40;99.90;;;;;;5066547;28;20047;-71
2021/11/05 13:41:43;;;;;;;1.92;0.90;;;15.50;99.90;;;;;;5063701;28;20040;-71
2021/11/05 13:45:01;;;;;;;6.72;1.52;;;15.40;99.90;;;;;;5063485;28;20044;-71
2021/11/05 13:48:14;;;;;;;3.78;1.10;;;15.20;99.90;;;;;;5062055;28;20043;-71
2021/11/05 13:51:29;;;;;;;6.28;1.40;;;15.10;99.90;;;;;;5058480;28;20505;-71
2021/11/05 13:54:40;;;;;;;6.93;1.83;;;15.10;99.90;;;;;;5062380;28;20031;-71
2021/11/05 13:57:44;;;;;;;8.18;2.78;;;15.10;99.90;;;;;;5063735;28;20047;-71
2021/11/05 14:00:49;;;;;;;10.60;1.95;;;15.00;99.90;;;;;;5061797;28;20032;-71
2021/11/05 14:03:55;;;;;;;4.68;1.88;;;15.00;99.90;;;;;;5064268;28;20048;-71
2021/11/05 14:06:59;;;;;;;3.75;1.60;;;14.90;99.90;;;;;;5065646;28;20051;-71
2021/11/05 14:10:07;;;;;;;8.68;2.40;;;14.90;99.90;;;;;;5061933;28;20044;-71
2021/11/05 14:13:11;;;;;;;4.40;1.80;;;15.00;99.90;;;;;;5061531;28;20043;-71
2021/11/05 14:16:15;;;;;;;5.47;2.63;;;15.10;99.90;;;;;;5060329;28;20056;-71
2021/11/05 14:19:25;;;;;;;5.38;3.63;;;15.10;99.90;;;;;;5058031;28;20502;-71
2021/11/05 14:22:37;;;;;;;7.45;2.50;;;15.20;99.90;;;;;;5060602;28;20044;-71
2021/11/05 14:25:44;;;;;;;8.05;2.20;;;15.30;99.90;;;;;;5060308;28;20040;-71
2021/11/05 14:29:08;;;;;;;7.15;3.45;;;15.30;99.90;;;;;;5062683;28;20386;-71
2021/11/05 14:32:15;;;;;;;8.65;3.00;;;15.30;99.90;;;;;;5060150;28;20087;-71
2021/11/05 14:35:23;;;;;;;7.07;1.67;;;15.10;99.90;;;;;;5058539;28;20039;-71
2021/11/05 14:38:28;;;;;;;6.30;2.42;;;14.90;99.90;;;;;;5063479;28;20098;-70
2021/11/05 14:41:33;;;;;;;6.38;1.30;;;14.70;99.90;;;;;;5065879;28;20036;-71
2021/11/05 14:44:37;;;;;;;8.13;1.20;;;14.60;99.90;;;;;;5060094;28;20047;-71
2021/11/05 14:47:42;;;;;;;7.28;1.75;;;14.60;99.90;;;;;;5058516;28;20039;-71
2021/11/05 14:50:58;;;;;;;7.38;2.38;;;14.50;99.90;;;;;;5064886;28;20041;-70
2021/11/05 14:54:02;;;;;;;7.07;2.90;;;14.30;99.90;;;;;;5062841;28;20048;-70
2021/11/05 14:57:20;;;;;;;4.15;2.17;;;14.10;99.90;;;;;;5053922;28;20048;-70
2021/11/05 15:00:28;;;;;;;10.57;3.47;;;14.00;99.90;;;;;;5052024;28;20040;-70
2021/11/05 15:03:41;;;;;;;16.85;3.25;;;13.70;99.90;;;;;;5059446;28;20060;-69
2021/11/05 15:06:45;;;;;;;10.60;2.85;;;13.70;99.90;;;;;;5068016;28;20039;-70
2021/11/05 15:09:49;;;;;;;13.60;2.22;;;13.60;99.90;;;;;;5061617;28;20402;-71
2021/11/05 15:12:55;;;;;;;3.65;1.52;;;13.40;99.90;;;;;;5059668;28;20521;-70
2021/11/05 15:16:02;;;;;;;9.55;2.50;;;13.40;99.90;;;;;;5061641;28;20044;-71
2021/11/05 15:19:06;;;;;;;7.28;3.17;;;13.30;99.90;;;;;;5060908;28;20035;-70
2021/11/05 15:22:10;;;;;;;9.07;2.67;;;13.20;99.90;;;;;;5060380;28;20048;-70
2021/11/05 15:25:14;;;;;;;3.60;1.65;;;13.10;99.90;;;;;;5061114;28;20060;-70
2021/11/05 15:28:19;;;;;;;4.75;1.20;;;13.10;99.90;;;;;;5058639;28;20043;-70
2021/11/05 15:31:27;;;;;;;14.93;2.58;;;13.00;99.90;;;;;;5062288;28;20039;-71
2021/11/05 15:34:34;;;;;;;5.03;2.17;;;13.00;99.90;;;;;;5053561;28;21012;-69
2021/11/05 15:37:38;;;;;;;7.30;2.22;;;12.90;99.90;;;;;;5059176;28;20119;-70
2021/11/05 15:40:44;;;;;;;5.70;1.70;;;12.90;99.90;;;;;;5061520;28;20036;-70
2021/11/05 15:43:49;;;;;;;7.45;2.25;;;12.90;99.90;;;;;;5064385;28;20035;-70
2021/11/05 15:46:53;;;;;;;8.07;1.98;;;12.80;99.90;;;;;;5058216;28;20052;-70
2021/11/05 15:49:57;;;;;;;8.05;1.75;;;12.80;99.90;;;;;;5058858;28;20040;-70
2021/11/05 15:53:02;;;;;;;4.72;1.50;;;12.70;99.90;;;;;;5054077;28;20059;-70
2021/11/05 15:56:08;;;;;;;6.15;2.60;;;12.70;99.90;;;;;;5061906;28;20047;-70
2021/11/05 15:59:12;;;;;;;7.80;1.90;;;12.60;99.90;;;;;;5059243;28;20039;-71
2021/11/05 16:02:16;;;;;;;6.70;1.88;;;12.70;99.90;;;;;;5068272;28;20055;-70
2021/11/05 16:05:21;;;;;;;10.98;4.43;;;12.60;99.90;;;;;;5058159;28;20055;-70